Bigfork, Minnesota
Current Conditions -  °F | °C
As of 5:33 PM on Wednesday 22 Oct 2014 (Local Time) from KFOZ Reporting Station
Clear Clear  
Wind Chill: 14°   Ceiling: Unl
Heat Index: 14°   Visibility: 10mi
Dew Point:   Wind: 14mph
Humidity: 59%   Direction: 180°S
Pressure: 29.94"   Gusts: 18mph
Location:  47.74°N, 93.65°W
Report Text: KFOZ 222233Z AUTO 18012G16KT 10SM CLR 14/06 A2994 RMK AO2
Loading
Personal Weather Stations






























Interactive Weather Map
Tropical Storm Tracking
New forecast layout! Learn more

10-Day Weather Forecast

Advertisements
Track Severe Weather on mobile